createdAt,value
2018-06-04T00:00:40.541Z,5.80
2018-06-04T00:03:09.338Z,6.00
2018-06-04T00:05:38.337Z,6.43
2018-06-04T00:08:07.089Z,6.27
2018-06-04T00:10:35.875Z,6.87
2018-06-04T00:13:04.627Z,6.53
2018-06-04T00:15:33.539Z,6.47
2018-06-04T00:18:04.413Z,5.97
2018-06-04T00:20:33.293Z,6.10
2018-06-04T00:23:02.250Z,6.60
2018-06-04T00:25:31.211Z,6.20
2018-06-04T00:28:00.072Z,6.90
2018-06-04T00:30:28.970Z,6.97
2018-06-04T00:32:57.770Z,6.17
2018-06-04T00:35:26.616Z,6.00
2018-06-04T00:37:55.448Z,6.10
2018-06-04T00:40:24.349Z,6.20
2018-06-04T00:42:53.175Z,6.70
2018-06-04T00:45:22.062Z,6.70
2018-06-04T00:47:50.907Z,6.37
2018-06-04T00:50:19.602Z,5.37
2018-06-04T00:52:48.461Z,6.20
2018-06-04T00:55:17.259Z,7.23
2018-06-04T00:57:45.985Z,7.43
2018-06-04T01:00:14.701Z,6.40
2018-06-04T01:02:43.810Z,7.70
2018-06-04T01:05:12.641Z,7.47
2018-06-04T01:07:41.338Z,6.23
2018-06-04T01:10:10.130Z,6.77
2018-06-04T01:12:38.975Z,6.70
2018-06-04T01:15:07.931Z,7.00
2018-06-04T01:17:41.182Z,7.70
2018-06-04T01:20:10.114Z,8.23
2018-06-04T01:22:39.021Z,8.70
2018-06-04T01:25:09.961Z,8.70
2018-06-04T01:27:38.815Z,7.73
2018-06-04T01:30:28.006Z,8.70
2018-06-04T01:32:56.860Z,8.90
2018-06-04T01:35:25.761Z,9.67
2018-06-04T01:37:54.539Z,9.40
2018-06-04T01:40:23.706Z,9.60
2018-06-04T01:42:53.479Z,9.47
2018-06-04T01:45:22.302Z,9.60
2018-06-04T01:47:51.117Z,9.73
2018-06-04T01:50:20.693Z,8.83
2018-06-04T01:52:49.691Z,9.30
2018-06-04T01:55:18.660Z,7.30
2018-06-04T01:57:47.767Z,8.53
2018-06-04T02:00:16.627Z,7.37
2018-06-04T02:02:45.422Z,8.43
2018-06-04T02:05:13.925Z,8.30
2018-06-04T02:07:42.659Z,8.30
2018-06-04T02:10:11.481Z,7.97
2018-06-04T02:12:40.203Z,9.97
2018-06-04T02:15:09.337Z,10.50
2018-06-04T02:17:38.315Z,10.30
2018-06-04T02:20:07.159Z,11.13
2018-06-04T02:22:35.877Z,9.87
2018-06-04T02:25:04.828Z,9.87
2018-06-04T02:27:33.680Z,10.80
2018-06-04T02:30:13.172Z,11.53
2018-06-04T02:32:41.986Z,11.53
2018-06-04T02:35:10.821Z,10.50
2018-06-04T02:37:46.967Z,11.17
2018-06-04T02:40:15.771Z,11.47
2018-06-04T02:45:53.838Z,12.33
2018-06-04T02:48:22.647Z,11.93
2018-06-04T02:50:51.443Z,12.50
2018-06-04T02:53:20.282Z,10.10
2018-06-04T02:55:49.079Z,12.57
2018-06-04T02:58:17.988Z,12.20
2018-06-04T03:00:46.926Z,11.67
2018-06-04T03:03:15.647Z,11.67
2018-06-04T03:05:44.443Z,12.23
2018-06-04T03:08:25.233Z,9.70
2018-06-04T03:10:54.029Z,10.30
2018-06-04T03:13:22.937Z,10.97
2018-06-04T03:15:51.764Z,10.30
2018-06-04T03:18:20.629Z,10.67
2018-06-04T03:20:49.821Z,11.13
2018-06-04T03:23:18.687Z,10.60
2018-06-04T03:25:48.231Z,10.23
2018-06-04T03:28:17.195Z,10.47
2018-06-04T03:30:46.530Z,11.13
2018-06-04T03:33:21.723Z,10.80
2018-06-04T03:35:50.665Z,10.60
2018-06-04T03:38:19.517Z,11.73
2018-06-04T03:40:48.305Z,10.83
2018-06-04T03:43:17.107Z,11.30
2018-06-04T03:45:45.940Z,12.80
2018-06-04T03:48:14.705Z,13.30
2018-06-04T03:50:43.411Z,13.20
2018-06-04T03:53:12.314Z,13.50
2018-06-04T03:55:41.193Z,13.17
2018-06-04T03:58:09.649Z,12.40
2018-06-04T04:00:39.547Z,12.47
2018-06-04T04:03:08.678Z,12.70
2018-06-04T04:05:37.797Z,12.33
2018-06-04T04:08:06.740Z,13.07
2018-06-04T04:10:35.612Z,12.43
2018-06-04T04:13:04.352Z,12.53
2018-06-04T04:15:33.178Z,13.40
2018-06-04T04:18:02.899Z,11.70
2018-06-04T04:20:31.629Z,13.17
2018-06-04T04:23:00.549Z,11.93
2018-06-04T04:25:29.515Z,11.80
2018-06-04T04:27:58.338Z,12.70
2018-06-04T04:30:27.051Z,12.27
2018-06-04T04:32:59.074Z,10.90
2018-06-04T04:35:27.916Z,12.37
2018-06-04T04:37:56.636Z,12.13
2018-06-04T04:40:26.988Z,12.03
2018-06-04T04:42:55.721Z,12.27
2018-06-04T04:45:26.621Z,11.40
2018-06-04T04:47:56.705Z,11.80
2018-06-04T04:50:28.988Z,11.63
2018-06-04T04:52:57.839Z,10.43
2018-06-04T04:55:26.693Z,10.70
2018-06-04T04:57:55.459Z,11.10
2018-06-04T05:00:29.873Z,9.97
2018-06-04T05:02:58.755Z,10.00
2018-06-04T05:05:27.551Z,9.57
2018-06-04T05:08:00.409Z,10.00
2018-06-04T05:10:29.191Z,8.55
2018-06-04T05:12:58.260Z,8.93
2018-06-04T05:15:30.649Z,9.40
2018-06-04T05:18:02.279Z,9.80
2018-06-04T05:20:31.041Z,8.10
2018-06-04T05:22:59.961Z,10.10
2018-06-04T05:25:28.791Z,7.60
2018-06-04T05:27:58.675Z,7.35
2018-06-04T05:30:27.744Z,8.20
2018-06-04T05:32:56.622Z,7.92
2018-06-04T05:35:25.449Z,9.08
2018-06-04T05:37:54.326Z,8.80
2018-06-04T05:40:33.861Z,9.00
2018-06-04T05:43:02.655Z,9.33
2018-06-04T05:45:31.545Z,9.73
2018-06-04T05:48:05.808Z,9.75
2018-06-04T05:50:34.576Z,9.00
2018-06-04T05:53:03.509Z,8.05
2018-06-04T05:55:32.277Z,8.25
2018-06-04T05:58:00.996Z,9.53
2018-06-04T06:00:29.763Z,8.75
2018-06-04T06:02:58.466Z,7.67
2018-06-04T06:05:27.375Z,10.55
2018-06-04T06:07:56.183Z,10.50
2018-06-04T06:10:25.041Z,10.28
2018-06-04T06:12:53.916Z,9.93
2018-06-04T06:15:22.835Z,9.58
2018-06-04T06:17:51.590Z,8.58
2018-06-04T06:20:20.381Z,9.30
2018-06-04T06:22:49.109Z,9.10
2018-06-04T06:25:17.983Z,7.28
2018-06-04T06:27:46.787Z,9.68
2018-06-04T06:30:15.757Z,8.48
2018-06-04T06:32:44.398Z,8.53
2018-06-04T06:35:13.409Z,7.33
2018-06-04T06:37:42.160Z,7.87
2018-06-04T06:40:10.887Z,9.40
2018-06-04T06:42:39.687Z,7.80
2018-06-04T06:45:08.806Z,9.28
2018-06-04T06:47:37.659Z,8.85
2018-06-04T06:50:06.798Z,7.55
2018-06-04T06:52:35.099Z,7.60
2018-06-04T06:55:04.042Z,8.17
2018-06-04T06:57:32.870Z,7.53
2018-06-04T07:00:01.611Z,8.78
2018-06-04T07:02:30.445Z,8.10
2018-06-04T07:04:59.321Z,7.28
2018-06-04T07:07:28.210Z,7.28
2018-06-04T07:09:57.060Z,8.53
2018-06-04T07:12:25.875Z,7.60
2018-06-04T07:14:54.633Z,8.60
2018-06-04T07:17:23.469Z,7.87
2018-06-04T07:19:52.265Z,6.58
2018-06-04T07:22:21.092Z,6.85
2018-06-04T07:24:50.131Z,8.23
2018-06-04T07:27:18.917Z,8.43
2018-06-04T07:29:47.741Z,6.97
2018-06-04T07:32:16.652Z,7.20
2018-06-04T07:34:45.564Z,7.50
2018-06-04T07:37:14.524Z,7.62
2018-06-04T07:39:43.290Z,7.10
2018-06-04T07:42:12.172Z,8.00
2018-06-04T07:44:40.950Z,7.42
2018-06-04T07:47:09.792Z,6.95
2018-06-04T07:49:38.441Z,7.40
2018-06-04T07:52:07.253Z,7.65
2018-06-04T07:54:36.093Z,7.13
2018-06-04T07:57:05.278Z,8.13
2018-06-04T07:59:34.197Z,7.90
2018-06-04T08:02:03.105Z,8.68
2018-06-04T08:04:32.557Z,6.72
2018-06-04T08:07:01.320Z,7.05
2018-06-04T08:09:30.214Z,6.53
2018-06-04T08:11:59.065Z,7.30
2018-06-04T08:14:28.739Z,7.80
2018-06-04T08:16:57.630Z,7.55
2018-06-04T08:19:26.023Z,7.30
2018-06-04T08:21:54.790Z,7.42
2018-06-04T08:24:23.824Z,7.15
2018-06-04T08:26:52.593Z,8.10
2018-06-04T08:29:21.479Z,7.05
2018-06-04T08:31:51.124Z,7.25
2018-06-04T08:34:20.001Z,7.37
2018-06-04T08:36:49.394Z,7.10
2018-06-04T08:39:18.258Z,7.08
2018-06-04T08:41:47.080Z,7.25
2018-06-04T08:44:15.888Z,7.40
2018-06-04T08:46:44.929Z,6.58
2018-06-04T08:49:32.164Z,6.70
2018-06-04T08:52:00.938Z,6.12
2018-06-04T08:54:29.666Z,6.22
2018-06-04T08:56:58.686Z,6.10
2018-06-04T08:59:27.538Z,6.83
2018-06-04T09:01:56.410Z,6.55
2018-06-04T09:04:26.204Z,6.90
2018-06-04T09:06:55.075Z,6.08
2018-06-04T09:09:24.134Z,6.03
2018-06-04T09:11:52.932Z,5.87
2018-06-04T09:14:21.767Z,5.40
2018-06-04T09:16:50.653Z,5.60
2018-06-04T09:19:19.457Z,5.08
2018-06-04T09:21:48.336Z,4.17
2018-06-04T09:24:17.118Z,4.30
2018-06-04T09:26:45.858Z,4.10
2018-06-04T09:29:14.546Z,4.53
2018-06-04T09:31:43.296Z,4.78
2018-06-04T09:34:12.051Z,4.50
2018-06-04T09:36:40.857Z,4.50
2018-06-04T09:39:09.782Z,5.70
2018-06-04T09:41:38.719Z,4.90
2018-06-04T09:44:07.477Z,4.67
2018-06-04T09:46:36.353Z,3.85
2018-06-04T09:49:05.704Z,4.78
2018-06-04T09:51:34.456Z,5.00
2018-06-04T09:54:03.263Z,4.78
2018-06-04T09:56:31.992Z,4.28
2018-06-04T09:59:00.766Z,4.50
2018-06-04T10:01:29.964Z,4.30
2018-06-04T10:03:58.686Z,4.40
2018-06-04T10:06:27.492Z,4.75
2018-06-04T10:08:56.305Z,4.28
2018-06-04T10:11:25.076Z,4.55
2018-06-04T10:13:54.043Z,5.17
2018-06-04T10:16:22.919Z,4.55
2018-06-04T10:18:51.672Z,5.00
2018-06-04T10:21:20.687Z,4.85
2018-06-04T10:23:49.436Z,4.40
2018-06-04T10:26:18.270Z,5.08
2018-06-04T10:28:46.975Z,4.70
2018-06-04T10:31:15.766Z,4.37
2018-06-04T10:33:44.523Z,4.87
2018-06-04T10:36:13.200Z,4.87
2018-06-04T10:38:41.946Z,4.50
2018-06-04T10:41:10.760Z,4.42
2018-06-04T10:43:39.542Z,4.70
2018-06-04T10:46:08.334Z,4.80
2018-06-04T10:48:37.102Z,5.05
2018-06-04T10:51:05.900Z,3.95
2018-06-04T10:53:35.127Z,4.80
2018-06-04T10:56:03.916Z,4.40
2018-06-04T10:58:32.764Z,8.50
2018-06-04T11:01:01.583Z,4.00
2018-06-04T11:03:30.457Z,3.62
2018-06-04T11:05:59.684Z,4.30
2018-06-04T11:08:28.131Z,4.10
2018-06-04T11:10:57.004Z,4.85
2018-06-04T11:13:25.831Z,4.35
2018-06-04T11:15:54.709Z,4.08
2018-06-04T11:18:23.549Z,4.90
2018-06-04T11:20:52.413Z,4.62
2018-06-04T11:23:21.214Z,4.25
2018-06-04T11:25:49.901Z,3.90
2018-06-04T11:28:18.669Z,4.90
2018-06-04T11:30:47.500Z,4.90
2018-06-04T11:33:16.723Z,4.30
2018-06-04T11:35:45.651Z,4.42
2018-06-04T11:38:14.632Z,4.35
2018-06-04T11:40:43.449Z,4.50
2018-06-04T11:43:12.660Z,4.58
2018-06-04T11:45:41.412Z,4.20
2018-06-04T11:48:10.196Z,4.60
2018-06-04T11:50:39.030Z,4.03
2018-06-04T11:53:07.930Z,4.65
2018-06-04T11:55:36.773Z,4.17
2018-06-04T11:58:05.550Z,3.80
2018-06-04T12:00:34.335Z,4.75
2018-06-04T12:03:03.055Z,4.15
2018-06-04T12:05:31.822Z,4.10
2018-06-04T12:08:00.584Z,3.98
2018-06-04T12:10:29.391Z,4.15
2018-06-04T12:12:58.234Z,4.15
2018-06-04T12:15:27.120Z,3.90
2018-06-04T12:17:55.859Z,3.65
2018-06-04T12:20:24.554Z,4.17
2018-06-04T12:22:53.462Z,3.75
2018-06-04T12:25:22.175Z,4.33
2018-06-04T12:27:51.032Z,4.47
2018-06-04T12:30:19.775Z,4.33
2018-06-04T12:32:48.536Z,4.17
2018-06-04T12:35:17.234Z,4.00
2018-06-04T12:37:45.970Z,4.20
2018-06-04T12:40:14.754Z,3.80
2018-06-04T12:42:43.555Z,4.05
2018-06-04T12:45:18.946Z,4.40
2018-06-04T12:47:47.688Z,4.33
2018-06-04T12:50:16.484Z,4.33
2018-06-04T12:52:45.186Z,3.87
2018-06-04T12:55:13.968Z,4.23
2018-06-04T12:57:42.737Z,4.40
2018-06-04T13:00:11.440Z,4.03
2018-06-04T13:02:40.356Z,3.95
2018-06-04T13:05:11.914Z,4.22
2018-06-04T13:07:40.707Z,4.55
2018-06-04T13:10:09.534Z,4.00
2018-06-04T13:12:38.257Z,4.10
2018-06-04T13:15:07.838Z,4.00
2018-06-04T13:17:36.656Z,4.50
2018-06-04T13:20:05.542Z,3.80
2018-06-04T13:22:34.306Z,3.83
2018-06-04T13:25:03.184Z,3.95
2018-06-04T13:27:31.966Z,3.80
2018-06-04T13:30:06.134Z,4.10
2018-06-04T13:32:34.876Z,4.10
2018-06-04T13:35:03.715Z,4.60
2018-06-04T13:37:32.524Z,3.85
2018-06-04T13:40:01.346Z,4.03
2018-06-04T13:42:30.162Z,4.00
2018-06-04T13:44:58.578Z,3.83
2018-06-04T13:47:27.358Z,3.50
2018-06-04T13:49:56.178Z,3.42
2018-06-04T13:52:25.124Z,3.92
2018-06-04T13:54:53.492Z,3.85
2018-06-04T13:57:22.336Z,3.87
2018-06-04T13:59:51.142Z,3.83
2018-06-04T14:02:19.914Z,4.00
2018-06-04T14:04:48.796Z,3.52
2018-06-04T14:07:17.732Z,3.80
2018-06-04T14:09:46.553Z,3.77
2018-06-04T14:12:15.336Z,3.60
2018-06-04T14:14:44.302Z,3.33
2018-06-04T14:17:13.158Z,3.52
2018-06-04T14:19:41.967Z,3.50
2018-06-04T14:22:10.790Z,3.95
2018-06-04T14:24:39.676Z,4.00
2018-06-04T14:27:08.540Z,3.37
2018-06-04T14:29:37.276Z,3.62
2018-06-04T14:32:06.108Z,3.70
2018-06-04T14:34:34.907Z,3.75
2018-06-04T14:37:03.821Z,3.98
2018-06-04T14:39:32.776Z,4.03
2018-06-04T14:42:01.677Z,4.60
2018-06-04T14:44:30.512Z,4.00
2018-06-04T14:46:59.480Z,3.80
2018-06-04T14:49:28.254Z,4.17
2018-06-04T14:51:57.192Z,3.87
2018-06-04T14:54:26.136Z,3.98
2018-06-04T14:56:54.598Z,5.10
2018-06-04T14:59:23.462Z,3.87
2018-06-04T15:01:52.588Z,3.75
2018-06-04T15:04:21.530Z,3.70
2018-06-04T15:06:50.506Z,3.40
2018-06-04T15:09:19.410Z,3.77
2018-06-04T15:11:48.336Z,3.52
2018-06-04T15:14:17.333Z,3.50
2018-06-04T15:16:46.330Z,3.70
2018-06-04T15:19:15.146Z,3.58
2018-06-04T15:21:44.060Z,3.52
2018-06-04T15:24:13.006Z,3.67
2018-06-04T15:26:42.030Z,3.83
2018-06-04T15:29:10.966Z,4.00
2018-06-04T15:31:39.862Z,3.70
2018-06-04T15:34:09.692Z,3.75
2018-06-04T15:36:38.610Z,3.95
2018-06-04T15:39:08.831Z,3.67
2018-06-04T15:41:37.884Z,3.72
2018-06-04T15:44:06.790Z,3.70
2018-06-04T15:46:35.684Z,3.40
2018-06-04T15:49:04.483Z,3.52
2018-06-04T15:51:33.330Z,3.60
2018-06-04T15:54:02.193Z,3.58
2018-06-04T15:56:30.993Z,3.80
2018-06-04T15:58:59.768Z,3.65
2018-06-04T16:01:28.651Z,3.42
2018-06-04T16:03:57.395Z,3.52
2018-06-04T16:06:37.267Z,3.65
2018-06-04T16:09:06.712Z,3.33
2018-06-04T16:11:35.571Z,3.30
2018-06-04T16:14:04.386Z,3.45
2018-06-04T16:16:33.172Z,3.50
2018-06-04T16:19:01.958Z,3.58
2018-06-04T16:21:30.745Z,3.33
2018-06-04T16:23:59.170Z,3.45
2018-06-04T16:26:28.000Z,3.30
2018-06-04T16:28:56.598Z,3.60
2018-06-04T16:31:25.109Z,3.60
2018-06-04T16:33:53.644Z,3.40
2018-06-04T16:36:22.168Z,3.37
2018-06-04T16:38:50.832Z,3.90
2018-06-04T16:41:19.676Z,3.10
2018-06-04T16:43:48.188Z,3.52
2018-06-04T16:46:16.740Z,3.30
2018-06-04T16:48:45.237Z,3.58
2018-06-04T16:51:13.746Z,3.37
2018-06-04T16:53:42.655Z,3.42
2018-06-04T16:56:11.162Z,3.40
2018-06-04T16:58:39.800Z,3.50
2018-06-04T17:01:10.489Z,3.40
2018-06-04T17:03:39.785Z,3.27
2018-06-04T17:06:08.288Z,3.77
2018-06-04T17:08:36.890Z,3.50
2018-06-04T17:11:05.604Z,3.65
2018-06-04T17:13:34.125Z,3.45
2018-06-04T17:16:02.568Z,3.67
2018-06-04T17:18:31.118Z,3.62
2018-06-04T17:20:59.612Z,3.70
2018-06-04T17:23:28.170Z,3.60
2018-06-04T17:25:56.752Z,3.30
2018-06-04T17:28:25.244Z,3.40
2018-06-04T17:30:53.822Z,3.17
2018-06-04T17:33:22.430Z,3.60
2018-06-04T17:35:50.954Z,3.43
2018-06-04T17:38:19.898Z,3.42
2018-06-04T17:40:48.748Z,3.55
2018-06-04T17:43:17.242Z,3.65
2018-06-04T17:45:46.566Z,3.80
2018-06-04T17:48:18.940Z,3.42
2018-06-04T17:50:47.510Z,3.70
2018-06-04T17:53:16.216Z,3.42
2018-06-04T17:55:45.617Z,3.62
2018-06-04T17:58:14.256Z,3.70
2018-06-04T18:00:42.744Z,3.87
2018-06-04T18:03:11.238Z,3.98
2018-06-04T18:05:39.803Z,3.55
2018-06-04T18:08:08.364Z,3.62
2018-06-04T18:10:36.944Z,4.20
2018-06-04T18:13:05.459Z,3.77
2018-06-04T18:15:33.970Z,3.98
2018-06-04T18:20:56.360Z,3.95
2018-06-04T18:23:24.795Z,4.00
2018-06-04T18:26:00.060Z,3.60
2018-06-04T18:28:28.540Z,4.30
2018-06-04T18:30:57.010Z,3.60
2018-06-04T18:33:25.506Z,4.00
2018-06-04T18:35:54.132Z,3.90
2018-06-04T18:38:32.686Z,4.15
2018-06-04T18:41:01.207Z,3.83
2018-06-04T18:43:29.862Z,4.60
2018-06-04T18:46:01.911Z,3.77
2018-06-04T18:48:30.476Z,3.80
2018-06-04T18:50:59.332Z,4.13
2018-06-04T18:53:27.870Z,4.00
2018-06-04T18:56:04.343Z,4.00
2018-06-04T18:58:32.524Z,4.20
2018-06-04T19:01:00.797Z,4.50
2018-06-04T19:03:39.757Z,4.23
2018-06-04T19:06:09.807Z,4.00
2018-06-04T19:08:38.398Z,4.30
2018-06-04T19:11:07.139Z,4.20
2018-06-04T19:13:42.877Z,4.47
2018-06-04T19:16:11.736Z,4.20
2018-06-04T19:18:40.311Z,4.23
2018-06-04T19:21:12.959Z,4.43
2018-06-04T19:23:54.060Z,4.20
2018-06-04T19:26:22.636Z,5.00
2018-06-04T19:28:51.111Z,4.53
2018-06-04T19:31:33.700Z,4.97
2018-06-04T19:34:02.322Z,4.70
2018-06-04T19:36:32.337Z,4.90
2018-06-04T19:39:01.310Z,4.80
2018-06-04T19:41:31.174Z,4.50
2018-06-04T19:43:59.997Z,4.70
2018-06-04T19:46:29.836Z,4.42
2018-06-04T19:48:59.811Z,4.73
2018-06-04T19:51:29.827Z,4.57
2018-06-04T19:53:58.805Z,4.37
2018-06-04T19:56:28.561Z,4.80
2018-06-04T19:58:57.434Z,4.60
2018-06-04T20:01:28.468Z,4.80
2018-06-04T20:03:58.324Z,4.53
2018-06-04T20:06:27.150Z,4.83
2018-06-04T20:08:57.025Z,4.80
2018-06-04T20:11:25.928Z,4.10
2018-06-04T20:13:54.775Z,4.60
2018-06-04T20:16:24.274Z,4.70
2018-06-04T20:18:58.828Z,4.53
2018-06-04T20:21:32.371Z,4.47
2018-06-04T20:24:01.271Z,4.63
2018-06-04T20:28:42.116Z,4.15
2018-06-04T20:31:13.566Z,4.80
2018-06-04T20:33:45.249Z,5.17
2018-06-04T20:36:21.401Z,4.30
2018-06-04T20:38:50.616Z,4.50
2018-06-04T20:41:19.856Z,4.70
2018-06-04T20:44:07.001Z,4.73
2018-06-04T20:46:35.838Z,4.67
2018-06-04T20:49:04.719Z,5.10
2018-06-04T20:51:41.315Z,4.50
2018-06-04T20:54:10.107Z,4.83
2018-06-04T20:56:38.895Z,4.60
2018-06-04T20:59:07.788Z,5.07
2018-06-04T21:01:36.653Z,4.50
2018-06-04T21:04:05.433Z,5.00
2018-06-04T21:06:34.333Z,4.83
2018-06-04T21:09:03.160Z,5.00
2018-06-04T21:11:31.926Z,5.20
2018-06-04T21:14:00.860Z,5.30
2018-06-04T21:16:29.743Z,5.10
2018-06-04T21:18:58.628Z,5.30
2018-06-04T21:21:27.594Z,4.80
2018-06-04T21:23:56.505Z,4.40
2018-06-04T21:26:25.301Z,5.43
2018-06-04T21:28:54.263Z,5.23
2018-06-04T21:31:23.279Z,5.20
2018-06-04T21:33:52.029Z,4.63
2018-06-04T21:36:21.791Z,4.70
2018-06-04T21:38:50.604Z,4.20
2018-06-04T21:41:19.422Z,4.67
2018-06-04T21:43:48.307Z,4.47
2018-06-04T21:46:17.076Z,4.57
2018-06-04T21:48:47.664Z,3.93
2018-06-04T21:51:16.710Z,3.80
2018-06-04T21:53:45.577Z,4.23
2018-06-04T21:56:14.668Z,4.40
2018-06-04T21:58:43.066Z,4.57
2018-06-04T22:01:12.008Z,4.90
2018-06-04T22:03:40.903Z,5.33
2018-06-04T22:06:09.701Z,5.17
2018-06-04T22:08:38.545Z,4.93
2018-06-04T22:11:07.478Z,5.17
2018-06-04T22:13:36.317Z,5.30
2018-06-04T22:16:05.331Z,5.40
2018-06-04T22:18:34.178Z,5.60
2018-06-04T22:21:02.979Z,5.90
2018-06-04T22:23:31.838Z,5.60
2018-06-04T22:26:00.643Z,5.60
2018-06-04T22:28:29.435Z,5.90
2018-06-04T22:30:58.375Z,5.70
2018-06-04T22:33:27.313Z,6.00
2018-06-04T22:35:56.096Z,5.43
2018-06-04T22:38:24.870Z,5.33
2018-06-04T22:40:53.951Z,5.70
2018-06-04T22:43:22.838Z,5.60
2018-06-04T22:45:51.683Z,6.27
2018-06-04T22:48:20.632Z,5.60
2018-06-04T22:50:49.512Z,6.03
2018-06-04T22:53:18.527Z,5.67
2018-06-04T22:55:47.183Z,5.60
2018-06-04T22:58:16.121Z,5.77
2018-06-04T23:00:44.881Z,5.47
2018-06-04T23:03:13.725Z,5.20
2018-06-04T23:05:42.709Z,5.10
2018-06-04T23:08:12.641Z,4.67
2018-06-04T23:10:41.533Z,5.60
2018-06-04T23:13:10.361Z,5.07
2018-06-04T23:15:39.237Z,5.70
2018-06-04T23:18:08.443Z,6.00
2018-06-04T23:20:37.295Z,5.80
2018-06-04T23:23:06.173Z,5.63
2018-06-04T23:25:34.531Z,5.53
2018-06-04T23:28:03.407Z,5.93
2018-06-04T23:30:32.217Z,5.90
2018-06-04T23:33:00.961Z,5.90
2018-06-04T23:35:29.757Z,6.63
2018-06-04T23:37:58.715Z,5.90
2018-06-04T23:40:28.045Z,6.17
2018-06-04T23:42:56.905Z,5.67
2018-06-04T23:45:25.762Z,5.60
2018-06-04T23:47:54.643Z,5.90
2018-06-04T23:50:23.397Z,6.13
2018-06-04T23:52:52.230Z,6.07
2018-06-04T23:55:21.043Z,6.40
2018-06-04T23:57:49.869Z,6.40
